Time;durP1;ratioP1;P1;durP2;ratioP2;P2;SDS_P1;SDS_P2;PMS_P1;PMS_P2;Temp;Humidity;BMP_temperature;BMP_pressure;BME280_temperature;BME280_humidity;BME280_pressure;Samples;Min_cycle;Max_cycle;Signal;HPM_P1;HPM_P2
2022/11/10 00:00:57;;;;;;;33.73;24.55;;;;;;;10.04;84.99;100926.64;1662476;84;21745;-88
2022/11/10 00:03:27;;;;;;;39.15;26.20;;;;;;;10.03;84.90;100939.74;1668777;84;21035;-88
2022/11/10 00:05:53;;;;;;;30.45;23.27;;;;;;;10.02;84.89;100947.14;1663410;84;21102;-88
2022/11/10 00:08:19;;;;;;;33.23;24.23;;;;;;;10.02;84.88;100951.09;1666606;84;21563;-88
2022/11/10 00:11:00;;;;;;;34.20;24.87;;;;;;;10.00;84.85;100948.41;1685808;84;21634;-88
2022/11/10 00:13:30;;;;;;;34.53;23.73;;;;;;;9.98;84.80;100943.96;1681070;84;21814;-88
2022/11/10 00:18:46;;;;;;;34.38;24.02;;;;;;;9.96;84.74;100951.80;1670028;84;20998;-87
2022/11/10 00:21:14;;;;;;;34.85;23.07;;;;;;;9.93;84.71;100953.04;1676491;84;21007;-87
2022/11/10 00:23:41;;;;;;;31.35;22.75;;;;;;;9.90;84.62;100948.98;1679283;84;21010;-87
2022/11/10 00:26:15;;;;;;;30.32;22.58;;;;;;;9.89;84.64;100952.05;1668202;84;21837;-87
2022/11/10 00:28:42;;;;;;;27.58;20.95;;;;;;;9.88;84.64;100945.42;1677439;84;20988;-87
2022/11/10 00:31:10;;;;;;;31.12;21.95;;;;;;;9.85;84.57;100937.43;1647445;84;20994;-87
2022/11/10 00:33:40;;;;;;;30.60;21.48;;;;;;;9.82;84.57;100921.15;1668958;84;20990;-88
2022/11/10 00:36:07;;;;;;;27.07;19.87;;;;;;;9.82;84.68;100929.47;1679582;84;21444;-88
2022/11/10 00:38:34;;;;;;;27.30;19.57;;;;;;;9.83;84.68;100931.23;1676567;84;23148;-87
2022/11/10 00:41:01;;;;;;;24.63;17.00;;;;;;;9.84;84.82;100944.43;1674513;84;21035;-88
2022/11/10 00:43:28;;;;;;;24.45;17.12;;;;;;;9.86;84.86;100941.86;1666099;84;20995;-88
2022/11/10 00:45:55;;;;;;;26.80;17.52;;;;;;;9.88;84.86;100944.11;1686866;83;21010;-88
2022/11/10 00:48:22;;;;;;;22.77;15.80;;;;;;;9.90;84.92;100947.67;1690208;83;21569;-87
2022/11/10 00:50:48;;;;;;;23.62;17.37;;;;;;;9.90;84.87;100955.13;1705983;83;21764;-88
2022/11/10 00:53:15;;;;;;;24.05;17.50;;;;;;;9.90;84.82;100948.55;1694381;83;21934;-87
2022/11/10 00:55:42;;;;;;;22.87;16.73;;;;;;;9.89;84.76;100954.68;1682714;81;21052;-87
2022/11/10 00:58:08;;;;;;;20.60;15.70;;;;;;;9.89;84.80;100955.99;1682806;83;20981;-87
2022/11/10 01:00:35;;;;;;;21.97;16.90;;;;;;;9.90;84.89;100957.76;1689780;83;21567;-87
2022/11/10 01:03:02;;;;;;;20.62;14.98;;;;;;;9.92;84.89;100954.75;1692558;83;21749;-87
2022/11/10 01:05:29;;;;;;;21.82;16.40;;;;;;;9.95;84.88;100955.29;1676827;83;20978;-87
2022/11/10 01:07:59;;;;;;;22.48;16.37;;;;;;;9.97;84.90;100950.97;1681364;83;21964;-87
2022/11/10 01:10:26;;;;;;;23.73;17.07;;;;;;;9.99;84.91;100954.96;1688963;83;21013;-87
2022/11/10 01:12:58;;;;;;;21.77;16.40;;;;;;;10.01;84.90;100957.22;1691147;82;21006;-87
2022/11/10 01:15:31;;;;;;;24.60;16.52;;;;;;;10.03;84.88;100959.47;1692996;83;21726;-88
2022/11/10 01:18:00;;;;;;;22.37;16.95;;;;;;;10.05;84.90;100956.45;1686436;82;21320;-87
2022/11/10 01:20:28;;;;;;;24.12;16.20;;;;;;;10.06;84.88;100956.91;1682668;83;20986;-88
2022/11/10 01:22:54;;;;;;;22.42;16.50;;;;;;;10.09;84.88;100954.38;1707899;83;20994;-88
2022/11/10 01:25:21;;;;;;;26.42;15.75;;;;;;;10.11;84.89;100972.41;1702987;83;21820;-87
2022/11/10 01:27:48;;;;;;;22.32;15.48;;;;;;;10.14;84.85;100967.26;1700510;83;21739;-88
2022/11/10 01:30:14;;;;;;;21.80;16.35;;;;;;;10.16;84.84;100966.88;1649567;83;21014;-87
2022/11/10 01:32:41;;;;;;;21.48;15.05;;;;;;;10.17;84.78;100971.70;1687899;83;21027;-88
2022/11/10 01:35:08;;;;;;;18.75;14.78;;;;;;;10.20;84.80;100966.12;1687610;83;20997;-89
2022/11/10 01:37:35;;;;;;;19.40;14.60;;;;;;;10.21;84.70;100971.86;1684184;83;20990;-88
2022/11/10 01:40:03;;;;;;;19.82;14.80;;;;;;;10.23;84.67;100963.98;1708186;83;21757;-89
2022/11/10 01:42:55;;;;;;;17.65;14.18;;;;;;;10.22;84.60;100953.90;1685303;83;21007;-89
2022/11/10 01:45:27;;;;;;;21.62;14.80;;;;;;;10.24;84.57;100956.58;1681603;83;21007;-89
2022/11/10 01:47:59;;;;;;;19.90;14.68;;;;;;;10.25;84.55;100972.42;1682579;84;21958;-88
2022/11/10 01:50:28;;;;;;;19.48;15.00;;;;;;;10.26;84.45;100970.67;1671985;84;21116;-88
2022/11/10 01:52:59;;;;;;;22.27;14.93;;;;;;;10.24;84.39;100978.51;1666185;84;22566;-88
2022/11/10 01:55:25;;;;;;;20.20;14.68;;;;;;;10.23;84.30;100977.14;1674229;84;21043;-88
2022/11/10 01:57:52;;;;;;;22.07;14.70;;;;;;;10.21;84.32;100973.18;1681483;83;21059;-88
2022/11/10 02:00:19;;;;;;;21.10;15.18;;;;;;;10.20;84.28;100972.69;1668354;84;20999;-88
2022/11/10 02:03:20;;;;;;;20.17;14.90;;;;;;;10.21;84.33;100973.58;1665459;84;20982;-88
2022/11/10 02:05:47;;;;;;;21.10;14.58;;;;;;;10.21;84.27;100974.50;1679232;84;21753;-88
2022/11/10 02:08:14;;;;;;;24.43;15.93;;;;;;;10.18;84.29;100966.50;1661753;86;21892;-87
2022/11/10 02:10:41;;;;;;;20.52;14.90;;;;;;;10.16;84.22;100962.94;1641716;85;21054;-88
2022/11/10 02:13:10;;;;;;;20.08;14.93;;;;;;;10.14;84.23;100967.69;1664302;84;21007;-88
2022/11/10 02:15:36;;;;;;;19.32;14.95;;;;;;;10.12;84.21;100965.89;1675743;84;21007;-88
2022/11/10 02:18:03;;;;;;;22.10;15.40;;;;;;;10.12;84.21;100968.95;1671376;84;21727;-88
2022/11/10 02:20:30;;;;;;;22.90;14.33;;;;;;;10.10;84.17;100973.28;1661734;84;21034;-88
2022/11/10 02:22:57;;;;;;;19.48;14.07;;;;;;;10.10;84.25;100973.28;1674230;84;20998;-87
2022/11/10 02:25:24;;;;;;;18.95;13.65;;;;;;;10.10;84.25;100980.73;1668503;84;21010;-86
2022/11/10 02:27:51;;;;;;;18.80;12.90;;;;;;;10.10;84.26;100982.05;1660338;85;21014;-87
2022/11/10 02:30:18;;;;;;;19.42;13.03;;;;;;;10.11;84.32;100988.20;1682518;84;21772;-87
2022/11/10 02:32:45;;;;;;;19.27;12.63;;;;;;;10.12;84.37;100988.68;1666773;83;21002;-87
2022/11/10 02:35:11;;;;;;;17.35;12.18;;;;;;;10.15;84.36;100987.87;1670734;84;21002;-87
2022/11/10 02:37:38;;;;;;;17.73;12.75;;;;;;;10.15;84.28;100988.75;1680227;84;20980;-86
2022/11/10 02:40:07;;;;;;;17.32;12.73;;;;;;;10.14;84.24;100987.42;1693995;83;21047;-86
2022/11/10 02:42:34;;;;;;;19.23;13.35;;;;;;;10.11;84.15;100985.13;1671305;84;21745;-87
2022/11/10 02:45:01;;;;;;;17.27;13.08;;;;;;;10.09;84.13;100985.95;1671182;83;21058;-86
2022/11/10 02:47:28;;;;;;;19.37;12.58;;;;;;;10.06;84.10;100992.41;1676356;84;21019;-86
2022/11/10 02:49:55;;;;;;;16.67;12.33;;;;;;;10.04;84.14;100988.45;1674589;84;21503;-87
2022/11/10 02:52:21;;;;;;;16.20;12.82;;;;;;;10.02;84.08;100990.54;1670487;84;21055;-86
2022/11/10 02:54:48;;;;;;;15.78;12.07;;;;;;;9.99;84.14;100993.98;1672067;84;21951;-86
2022/11/10 02:57:15;;;;;;;19.48;13.08;;;;;;;9.98;84.15;100996.13;1671946;84;21002;-85
2022/11/10 02:59:42;;;;;;;17.98;12.58;;;;;;;9.96;84.18;101000.45;1673208;84;21050;-86
2022/11/10 03:02:08;;;;;;;19.02;12.65;;;;;;;9.94;84.20;100992.94;1668862;83;21878;-86
2022/11/10 03:04:35;;;;;;;17.12;13.50;;;;;;;9.92;84.24;101000.77;1666910;84;21019;-87
2022/11/10 03:07:02;;;;;;;18.57;12.43;;;;;;;9.92;84.26;100996.82;1675442;84;21815;-87
2022/11/10 03:09:29;;;;;;;20.82;13.53;;;;;;;9.92;84.34;100999.45;1692611;84;20967;-87
2022/11/10 03:11:56;;;;;;;16.55;13.35;;;;;;;9.92;84.36;100998.14;1670928;84;20967;-86
2022/11/10 03:14:23;;;;;;;17.00;12.90;;;;;;;9.92;84.44;100994.19;1672787;83;21492;-87
2022/11/10 03:16:50;;;;;;;18.62;13.58;;;;;;;9.95;84.50;100989.87;1659809;84;21477;-88
2022/11/10 03:19:17;;;;;;;18.15;13.95;;;;;;;9.97;84.51;100996.10;1665082;84;21702;-87
2022/11/10 03:21:43;;;;;;;17.27;12.65;;;;;;;9.99;84.52;100998.35;1672759;84;20993;-87
2022/11/10 03:24:10;;;;;;;18.80;13.43;;;;;;;10.00;84.51;100999.69;1677906;84;20976;-87
2022/11/10 03:26:37;;;;;;;19.57;13.70;;;;;;;10.01;84.47;101004.55;1672024;84;21133;-87
2022/11/10 03:29:06;;;;;;;19.12;13.60;;;;;;;10.00;84.47;101002.32;1686631;83;21443;-87
2022/11/10 03:31:33;;;;;;;18.00;13.25;;;;;;;10.00;84.43;101004.06;1664295;84;21788;-87
2022/11/10 03:34:06;;;;;;;17.65;13.83;;;;;;;9.99;84.44;101005.81;1684003;84;22066;-87
2022/11/10 03:36:39;;;;;;;;;;;;;;;10.00;84.48;101003.63;1687752;84;21496;-87
2022/11/10 03:39:06;;;;;;;19.95;12.63;;;;;;;10.00;84.49;101006.27;1676221;84;20758;-88
2022/11/10 03:41:32;;;;;;;20.43;13.72;;;;;;;10.01;84.42;101004.55;1672148;84;21002;-87
2022/11/10 03:43:59;;;;;;;19.12;13.75;;;;;;;10.00;84.47;101011.95;1681229;84;21748;-87
2022/11/10 03:46:27;;;;;;;17.87;12.58;;;;;;;10.01;84.54;101015.95;1674131;83;21435;-87
2022/11/10 03:48:54;;;;;;;18.92;12.90;;;;;;;10.03;84.55;101026.09;1674226;83;21935;-86
2022/11/10 03:51:21;;;;;;;19.50;12.73;;;;;;;10.04;84.54;101029.22;1690112;83;20979;-86
2022/11/10 03:53:48;;;;;;;16.57;12.80;;;;;;;10.06;84.51;101033.17;1676385;83;21417;-86
2022/11/10 03:56:15;;;;;;;16.57;12.37;;;;;;;10.06;84.44;101030.55;1658464;85;21933;-87
2022/11/10 03:58:42;;;;;;;17.57;12.68;;;;;;;10.05;84.43;101032.73;1647147;85;21612;-87
2022/11/10 04:01:08;;;;;;;18.95;13.00;;;;;;;10.05;84.40;101039.30;1672231;83;20972;-86
2022/11/10 04:03:35;;;;;;;18.40;13.35;;;;;;;10.05;84.41;101036.67;1691843;83;20993;-87
2022/11/10 04:08:59;;;;;;;18.85;12.68;;;;;;;10.04;84.42;101032.24;1687215;82;21737;-86
2022/11/10 04:16:57;;;;;;;17.27;11.93;;;;;;;10.04;84.34;101046.70;1690900;83;20982;-86
2022/11/10 04:19:23;;;;;;;16.93;12.78;;;;;;;10.04;84.36;101051.57;1654074;85;22039;-87
2022/11/10 04:21:51;;;;;;;19.45;12.68;;;;;;;10.03;84.34;101054.14;1668959;83;21734;-87
2022/11/10 04:24:18;;;;;;;18.20;12.53;;;;;;;10.04;84.37;101058.14;1675983;83;21001;-87
2022/11/10 04:26:47;;;;;;;18.37;13.22;;;;;;;10.03;84.38;101052.83;1686023;82;21518;-87
2022/11/10 04:29:16;;;;;;;16.17;13.08;;;;;;;10.04;84.38;101053.28;1673102;83;21049;-87
2022/11/10 04:31:43;;;;;;;20.55;14.15;;;;;;;10.03;84.35;101051.08;1675057;83;21528;-87
2022/11/10 04:34:13;;;;;;;16.02;11.65;;;;;;;10.02;84.34;101055.89;1672785;82;21737;-87
2022/11/10 04:36:41;;;;;;;16.75;12.43;;;;;;;;;;1672385;83;21645;-87
2022/11/10 04:39:08;;;;;;;18.17;12.18;;;;;;;9.99;84.30;101054.47;1671461;83;20990;-87
2022/11/10 04:41:35;;;;;;;17.25;13.10;;;;;;;10.00;84.35;101065.86;1692030;83;21095;-87
2022/11/10 04:44:02;;;;;;;17.52;13.28;;;;;;;9.98;84.34;101067.13;1691510;83;20987;-86
2022/11/10 04:46:37;;;;;;;17.60;12.43;;;;;;;9.99;84.35;101067.61;1707727;81;21753;-86
2022/11/10 04:49:04;;;;;;;19.92;11.93;;;;;;;10.00;84.33;101075.07;1689225;83;21088;-87
2022/11/10 04:51:37;;;;;;;20.35;12.75;;;;;;;9.99;84.31;101074.62;1704610;83;21046;-86
2022/11/10 04:54:05;;;;;;;17.20;12.98;;;;;;;9.99;84.31;101078.56;1700484;83;21054;-87
2022/11/10 04:56:33;;;;;;;17.52;12.37;;;;;;;9.99;84.31;101079.88;1690546;83;21577;-88
2022/11/10 04:59:00;;;;;;;18.48;11.97;;;;;;;9.98;84.30;101077.64;1698885;83;21812;-85
2022/11/10 05:01:28;;;;;;;18.45;13.90;;;;;;;9.99;84.27;101081.19;1694623;81;20955;-87
2022/11/10 05:03:54;;;;;;;19.23;14.20;;;;;;;9.98;84.25;101078.08;1702312;81;21503;-82
2022/11/10 05:06:21;;;;;;;17.30;12.70;;;;;;;9.97;84.29;101071.94;1695083;81;21472;-84
2022/11/10 05:08:48;;;;;;;18.87;12.55;;;;;;;9.96;84.25;101078.02;1674189;83;21003;-85
2022/11/10 05:11:15;;;;;;;17.95;13.70;;;;;;;9.97;84.20;101082.45;1700332;81;21776;-83
2022/11/10 05:13:41;;;;;;;16.97;11.75;;;;;;;9.95;84.19;101083.22;1698113;83;21011;-85
2022/11/10 05:16:08;;;;;;;18.05;12.05;;;;;;;9.94;84.24;101083.66;1700738;82;20955;-87
2022/11/10 05:18:35;;;;;;;18.70;14.05;;;;;;;9.94;84.27;101084.97;1687776;83;20994;-86
2022/11/10 05:21:02;;;;;;;18.05;13.18;;;;;;;9.95;84.25;101085.45;1696871;83;21007;-83
2022/11/10 05:23:37;;;;;;;16.40;12.15;;;;;;;9.94;84.23;101086.28;1693408;83;22582;-84
2022/11/10 05:26:13;;;;;;;19.73;12.35;;;;;;;9.95;84.23;101094.66;1709252;81;20987;-85
2022/11/10 05:28:41;;;;;;;16.48;12.10;;;;;;;9.96;84.24;101099.05;1693262;81;21960;-85
2022/11/10 05:31:08;;;;;;;14.63;11.50;;;;;;;9.95;84.19;101098.61;1697981;81;21514;-86
2022/11/10 05:33:35;;;;;;;16.70;11.53;;;;;;;9.96;84.17;101100.80;1712387;83;20998;-89
2022/11/10 05:36:02;;;;;;;18.12;12.20;;;;;;;9.94;84.14;101107.32;1697271;81;21736;-90
2022/11/10 05:38:28;;;;;;;17.02;12.13;;;;;;;9.93;84.12;101109.50;1699887;83;21031;-86
2022/11/10 05:40:56;;;;;;;16.57;11.60;;;;;;;9.92;84.09;101118.21;1668513;83;21007;-87
2022/11/10 05:43:23;;;;;;;19.15;12.30;;;;;;;9.91;84.08;101125.64;1696933;83;21026;-84
2022/11/10 05:45:50;;;;;;;18.80;11.20;;;;;;;9.90;84.04;101130.42;1672790;83;21466;-86
2022/11/10 05:48:17;;;;;;;15.68;11.20;;;;;;;9.87;84.05;101128.59;1675809;84;22768;-84
2022/11/10 05:50:44;;;;;;;17.02;11.60;;;;;;;9.86;84.04;101142.99;1662762;84;21024;-84
2022/11/10 05:53:10;;;;;;;16.35;11.53;;;;;;;9.84;84.07;101137.67;1653646;84;21450;-85
2022/11/10 05:55:37;;;;;;;15.75;11.30;;;;;;;9.83;84.00;101141.56;1674367;84;20990;-84
2022/11/10 05:58:04;;;;;;;15.18;11.30;;;;;;;9.81;83.97;101149.39;1662708;84;21021;-83
2022/11/10 06:00:31;;;;;;;19.52;11.10;;;;;;;9.79;84.01;101157.65;1646164;84;22958;-84
2022/11/10 06:03:06;;;;;;;20.80;11.45;;;;;;;9.77;84.02;101159.77;1669765;84;21400;-84
2022/11/10 06:05:34;;;;;;;15.63;11.15;;;;;;;9.76;84.03;101167.16;1661187;84;21054;-85
2022/11/10 06:08:02;;;;;;;16.23;11.48;;;;;;;9.75;84.05;101170.22;1651943;85;21875;-87
2022/11/10 06:10:29;;;;;;;21.85;14.98;;;;;;;9.73;84.04;101170.59;1648392;85;20995;-88
2022/11/10 06:12:56;;;;;;;17.27;11.18;;;;;;;9.70;84.00;101167.44;1651504;85;21978;-86
2022/11/10 06:15:23;;;;;;;18.98;11.60;;;;;;;9.66;83.98;101168.15;1649538;85;21049;-86
2022/11/10 06:17:53;;;;;;;15.13;11.10;;;;;;;9.62;83.93;101174.14;1682240;84;20986;-87
2022/11/10 06:20:19;;;;;;;17.20;11.03;;;;;;;9.58;83.96;101177.51;1665288;84;20993;-86
2022/11/10 06:23:05;;;;;;;16.95;10.85;;;;;;;9.57;83.98;101190.16;1676184;84;21004;-90
2022/11/10 06:25:34;;;;;;;15.63;11.30;;;;;;;9.52;83.96;101205.77;1681587;84;21751;-86
2022/11/10 06:28:01;;;;;;;15.88;11.12;;;;;;;9.52;84.07;101205.77;1667697;84;21455;-86
2022/11/10 06:30:28;;;;;;;16.02;10.60;;;;;;;9.53;84.18;101207.58;1652409;85;20989;-86
2022/11/10 06:32:55;;;;;;;18.20;10.70;;;;;;;9.57;84.37;101222.12;1662924;85;21113;-84
2022/11/10 06:35:24;;;;;;;17.82;11.38;;;;;;;9.62;84.45;101230.66;1659456;85;21001;-84
2022/11/10 06:38:03;;;;;;;18.65;12.18;;;;;;;9.68;84.43;101239.18;1676793;85;21648;-84
2022/11/10 06:40:30;;;;;;;14.73;11.08;;;;;;;9.69;84.39;101239.24;1654240;85;21016;-84
2022/11/10 06:42:57;;;;;;;16.82;11.60;;;;;;;9.73;84.38;101235.00;1653536;85;21955;-84
2022/11/10 06:45:24;;;;;;;19.82;11.78;;;;;;;9.75;84.33;101233.31;1655246;85;21645;-84
2022/11/10 06:48:08;;;;;;;16.30;11.78;;;;;;;9.78;84.27;101246.58;1649947;85;20993;-84
2022/11/10 06:50:36;;;;;;;14.68;11.90;;;;;;;9.80;84.23;101249.23;1649282;85;22951;-84
2022/11/10 06:53:02;;;;;;;18.23;12.07;;;;;;;9.79;84.14;101252.30;1638939;85;21033;-84
2022/11/10 06:55:29;;;;;;;15.85;11.53;;;;;;;9.80;84.12;101256.73;1653853;85;21046;-84
2022/11/10 06:57:56;;;;;;;16.02;11.80;;;;;;;9.82;84.22;101252.42;1659890;85;21037;-84
2022/11/10 07:00:24;;;;;;;19.55;12.73;;;;;;;9.90;84.39;101259.27;1665430;85;21003;-84
2022/11/10 07:03:05;;;;;;;17.48;11.70;;;;;;;9.96;84.40;101255.53;1657505;85;21707;-84
2022/11/10 07:05:33;;;;;;;18.37;12.37;;;;;;;10.05;84.39;101276.02;1655807;85;21010;-84
2022/11/10 07:08:07;;;;;;;18.60;11.38;;;;;;;10.14;84.31;101268.45;1625745;85;21046;-84
2022/11/10 07:10:34;;;;;;;21.30;11.78;;;;;;;10.20;84.28;101275.23;1643478;85;21569;-84
2022/11/10 07:13:01;;;;;;;17.17;10.38;;;;;;;10.27;84.21;101278.98;1644819;85;21034;-84
2022/11/10 07:15:29;;;;;;;14.55;10.58;;;;;;;10.31;84.06;101280.48;1655075;85;21743;-84
2022/11/10 07:17:56;;;;;;;14.30;11.28;;;;;;;10.35;83.92;101288.48;1659753;85;21751;-84
2022/11/10 07:20:22;;;;;;;16.02;11.63;;;;;;;10.36;83.87;101291.18;1661894;85;21617;-84
2022/11/10 07:22:49;;;;;;;14.47;11.48;;;;;;;10.36;83.70;101287.23;1650350;85;20989;-84
2022/11/10 07:25:16;;;;;;;16.45;11.12;;;;;;;10.34;83.60;101284.94;1640650;86;21002;-84
2022/11/10 07:27:43;;;;;;;15.65;10.25;;;;;;;10.30;83.51;101282.66;1647740;85;21757;-84
2022/11/10 07:30:11;;;;;;;15.43;10.48;;;;;;;10.28;83.51;101287.33;1644216;85;21035;-84
2022/11/10 07:32:37;;;;;;;13.58;11.08;;;;;;;10.26;83.52;101285.95;1658223;85;21017;-84
2022/11/10 07:35:05;;;;;;;14.70;9.78;;;;;;;10.28;83.62;101287.33;1655250;85;21009;-85
2022/11/10 07:37:31;;;;;;;16.85;10.25;;;;;;;10.29;83.60;101287.39;1649513;85;21016;-84
2022/11/10 07:39:58;;;;;;;15.98;9.85;;;;;;;10.30;83.62;101286.96;1653911;85;21752;-83
2022/11/10 07:42:25;;;;;;;13.38;10.10;;;;;;;10.33;83.68;101289.75;1647024;85;21049;-84
2022/11/10 07:44:51;;;;;;;12.80;9.93;;;;;;;10.41;83.75;101296.16;1661096;85;21101;-84
2022/11/10 07:47:18;;;;;;;12.47;8.65;;;;;;;10.47;83.72;101303.37;1637808;85;21013;-84
2022/11/10 07:49:46;;;;;;;15.68;9.85;;;;;;;10.52;83.65;101303.11;1655614;86;21384;-84
2022/11/10 07:52:13;;;;;;;15.60;9.05;;;;;;;10.58;83.72;101309.00;1643568;86;21782;-84
2022/11/10 07:54:40;;;;;;;13.85;9.03;;;;;;;10.65;83.69;101309.26;1636049;86;21490;-84
2022/11/10 07:57:07;;;;;;;17.65;8.73;;;;;;;10.73;83.61;101318.73;1683660;84;20990;-84
2022/11/10 07:59:33;;;;;;;11.53;8.48;;;;;;;10.79;83.55;101320.67;1682128;84;21047;-84
2022/11/10 08:02:00;;;;;;;16.07;7.90;;;;;;;10.84;83.46;101326.99;1677032;84;20980;-84
2022/11/10 08:04:27;;;;;;;18.02;9.28;;;;;;;10.88;83.36;101336.34;1680033;84;21752;-84
2022/11/10 08:06:54;;;;;;;10.30;7.92;;;;;;;10.91;83.25;101331.63;1680558;84;21434;-84
2022/11/10 08:09:21;;;;;;;13.85;8.58;;;;;;;10.98;83.21;101336.25;1675749;84;21901;-84
2022/11/10 08:11:48;;;;;;;11.22;7.42;;;;;;;11.01;83.16;101337.65;1681767;84;20990;-84
2022/11/10 08:14:14;;;;;;;11.60;7.87;;;;;;;11.11;83.23;101340.59;1679435;84;21016;-84
2022/11/10 08:16:41;;;;;;;11.70;7.30;;;;;;;11.24;83.34;101345.40;1683467;84;21728;-84
2022/11/10 08:19:08;;;;;;;11.38;7.10;;;;;;;11.45;83.46;101351.36;1687188;84;21013;-84
2022/11/10 08:21:35;;;;;;;13.98;6.80;;;;;;;11.76;83.69;101350.08;1677554;84;21002;-84
2022/11/10 08:24:01;;;;;;;9.68;6.97;;;;;;;12.07;83.68;101358.50;1633844;86;21032;-84
2022/11/10 08:26:28;;;;;;;9.20;5.97;;;;;;;12.34;83.45;101360.13;1668967;84;21024;-84
2022/11/10 08:28:56;;;;;;;11.97;6.58;;;;;;;12.58;83.17;101366.06;1667846;84;21682;-84
2022/11/10 08:31:23;;;;;;;12.73;6.35;;;;;;;12.76;82.72;101362.11;1683453;84;21537;-84
2022/11/10 08:33:50;;;;;;;8.90;6.00;;;;;;;12.86;82.21;101371.16;1676398;84;20981;-85
2022/11/10 08:36:17;;;;;;;7.55;5.80;;;;;;;12.94;81.92;101366.98;1668546;84;21029;-84
2022/11/10 08:38:44;;;;;;;6.70;5.20;;;;;;;13.02;81.58;101367.62;1681514;84;20974;-84
2022/11/10 08:41:11;;;;;;;11.50;4.97;;;;;;;13.07;81.35;101371.71;1682805;84;21744;-84
2022/11/10 08:43:37;;;;;;;11.10;4.87;;;;;;;13.21;81.14;101377.33;1682805;84;21004;-84
2022/11/10 08:46:04;;;;;;;11.00;5.60;;;;;;;13.35;81.10;101382.56;1694283;84;21002;-84
2022/11/10 08:48:31;;;;;;;7.62;4.70;;;;;;;13.44;80.72;101384.94;1674315;84;21076;-84
2022/11/10 08:50:59;;;;;;;8.93;4.80;;;;;;;13.47;80.34;101394.28;1679312;84;20997;-85
2022/11/10 08:53:26;;;;;;;11.53;4.45;;;;;;;13.48;80.07;101394.77;1686884;84;22846;-84
2022/11/10 08:55:55;;;;;;;7.72;4.17;;;;;;;13.48;79.81;101403.58;1681111;84;21407;-84
2022/11/10 08:58:22;;;;;;;10.23;4.78;;;;;;;13.48;79.56;101401.38;1641691;84;21070;-85
2022/11/10 09:00:49;;;;;;;7.80;4.28;;;;;;;13.44;79.39;101407.42;1683456;84;20994;-85
2022/11/10 09:03:18;;;;;;;8.35;4.00;;;;;;;13.44;79.37;101406.09;1680167;84;21448;-84
2022/11/10 09:05:45;;;;;;;6.67;4.75;;;;;;;13.47;79.42;101412.80;1680365;84;21731;-84
2022/11/10 09:08:12;;;;;;;6.78;3.85;;;;;;;13.47;79.08;101415.00;1678592;84;20993;-84
2022/11/10 09:10:42;;;;;;;8.85;4.28;;;;;;;13.45;78.89;101413.19;1688578;84;21820;-84
2022/11/10 09:13:10;;;;;;;7.42;3.98;;;;;;;13.44;78.74;101407.02;1675051;84;21041;-84
2022/11/10 09:15:36;;;;;;;10.45;3.67;;;;;;;13.44;78.71;101411.39;1687423;84;21460;-84
2022/11/10 09:18:04;;;;;;;9.75;4.10;;;;;;;13.44;78.56;101416.67;1683510;84;21911;-84
2022/11/10 09:20:33;;;;;;;5.62;3.50;;;;;;;13.39;78.47;101420.11;1684122;84;21038;-84
2022/11/10 09:23:08;;;;;;;7.72;3.80;;;;;;;13.35;78.37;101435.44;1682510;84;20969;-84
2022/11/10 09:25:35;;;;;;;7.12;3.40;;;;;;;13.29;78.31;101431.30;1673743;83;21400;-84
2022/11/10 09:28:02;;;;;;;6.65;3.15;;;;;;;13.22;78.13;101434.64;1677962;84;20998;-84
2022/11/10 09:30:29;;;;;;;10.48;3.20;;;;;;;13.09;77.95;101441.36;1680173;84;21750;-85
2022/11/10 09:32:56;;;;;;;9.30;2.83;;;;;;;12.97;77.94;101435.73;1686230;84;20998;-84
2022/11/10 09:35:23;;;;;;;8.60;3.20;;;;;;;12.87;77.95;101448.26;1681598;84;20964;-84
2022/11/10 09:37:49;;;;;;;8.05;3.15;;;;;;;12.77;77.98;101444.05;1687531;84;21565;-84
2022/11/10 09:40:21;;;;;;;9.33;4.80;;;;;;;12.71;78.07;101448.28;1681698;84;21045;-84
2022/11/10 09:42:48;;;;;;;8.15;3.42;;;;;;;12.70;78.20;101448.69;1678594;84;22578;-84
2022/11/10 09:45:28;;;;;;;8.48;3.62;;;;;;;12.72;78.33;101452.70;1679456;84;21184;-84
2022/11/10 09:48:10;;;;;;;5.80;2.95;;;;;;;12.73;78.34;101452.75;1674198;84;21013;-84
2022/11/10 09:50:47;;;;;;;9.35;3.42;;;;;;;12.78;78.45;101455.09;1641509;84;21010;-85
2022/11/10 09:53:45;;;;;;;8.45;3.10;;;;;;;12.82;78.43;101465.33;1667828;83;21062;-85
2022/11/10 09:56:15;;;;;;;8.25;3.52;;;;;;;12.84;78.35;101458.33;1668169;83;21767;-85
2022/11/10 09:58:43;;;;;;;6.83;3.30;;;;;;;12.95;78.46;101458.19;1673354;84;21003;-84
2022/11/10 10:01:30;;;;;;;6.85;3.37;;;;;;;13.09;78.41;101449.29;1672631;83;20991;-84
2022/11/10 10:04:08;;;;;;;7.83;3.00;;;;;;;13.28;78.52;101454.62;1672863;83;21344;-84
2022/11/10 10:06:41;;;;;;;9.43;4.00;;;;;;;13.41;78.29;101460.70;1665592;84;20995;-84
2022/11/10 10:09:19;;;;;;;6.45;2.27;;;;;;;13.52;77.98;101468.03;1673410;83;21719;-85
2022/11/10 10:12:30;;;;;;;8.50;2.92;;;;;;;13.58;77.63;101468.16;1669078;84;21452;-85
2022/11/10 10:15:11;;;;;;;3.72;2.55;;;;;;;13.65;77.46;101470.55;1670703;84;20994;-84
2022/11/10 10:18:11;;;;;;;6.62;2.60;;;;;;;13.79;77.39;101485.89;1674902;84;21018;-84
2022/11/10 10:20:52;;;;;;;7.33;3.00;;;;;;;14.00;77.51;101480.19;1669256;84;21023;-84
2022/11/10 10:23:36;;;;;;;4.50;2.47;;;;;;;14.27;77.45;101480.77;1669948;84;21748;-84
2022/11/10 10:26:03;;;;;;;8.68;2.83;;;;;;;14.47;76.91;101476.79;1674061;83;20967;-84
2022/11/10 10:28:37;;;;;;;4.72;2.02;;;;;;;14.52;76.34;101488.34;1663559;84;20989;-84
2022/11/10 10:31:21;;;;;;;3.87;2.17;;;;;;;14.48;76.01;101489.59;1645138;84;21006;-84
2022/11/10 10:33:47;;;;;;;5.47;2.10;;;;;;;14.49;75.93;101498.91;1664837;84;20979;-84
2022/11/10 10:36:27;;;;;;;3.80;2.20;;;;;;;14.48;75.81;101501.52;1675079;84;21735;-85
2022/11/10 10:38:57;;;;;;;4.22;2.42;;;;;;;14.47;75.59;101507.25;1665711;84;21397;-84
2022/11/10 10:41:28;;;;;;;5.33;2.12;;;;;;;14.40;75.24;101509.30;1648571;85;21340;-84
2022/11/10 10:43:57;;;;;;;3.42;1.60;;;;;;;14.42;75.44;101503.60;1670260;83;21181;-84
2022/11/10 10:46:28;;;;;;;5.72;1.70;;;;;;;14.50;75.61;101516.56;1677284;84;21641;-84
2022/11/10 10:49:17;;;;;;;3.00;1.62;;;;;;;14.68;75.72;101511.24;1693224;83;22489;-84
2022/11/10 10:51:44;;;;;;;5.10;1.55;;;;;;;14.85;75.40;101500.98;1703943;83;21043;-84
2022/11/10 10:54:27;;;;;;;3.72;1.72;;;;;;;14.97;74.90;101514.45;1688729;83;21014;-86
2022/11/10 10:57:04;;;;;;;4.22;1.95;;;;;;;15.03;74.65;101514.55;1690815;83;21034;-87
2022/11/10 10:59:30;;;;;;;3.95;1.60;;;;;;;15.08;74.53;101510.69;1702052;81;21622;-84
2022/11/10 11:01:57;;;;;;;2.85;1.60;;;;;;;15.10;74.19;101516.91;1705240;83;22717;-84
2022/11/10 11:04:35;;;;;;;4.85;1.70;;;;;;;15.01;73.97;101514.08;1691480;83;21038;-84
2022/11/10 11:07:05;;;;;;;3.10;1.45;;;;;;;14.92;74.00;101519.68;1697699;83;20987;-84
2022/11/10 11:09:41;;;;;;;4.42;1.90;;;;;;;14.78;73.87;101523.80;1698542;83;20987;-85
2022/11/10 11:12:25;;;;;;;4.67;1.70;;;;;;;14.65;73.95;101520.44;1696430;83;21488;-86
2022/11/10 11:14:53;;;;;;;;;;;;;;;14.53;73.88;101525.92;1701847;83;23060;-86
2022/11/10 11:17:21;;;;;;;3.37;1.60;;;;;;;14.42;73.63;101535.83;1703495;81;20197;-84
2022/11/10 11:19:51;;;;;;;4.45;1.32;;;;;;;14.31;73.92;101555.44;1696972;82;20980;-87
2022/11/10 11:22:40;;;;;;;2.60;1.15;;;;;;;14.24;73.77;101554.39;1706418;83;21010;-84
2022/11/10 11:25:30;;;;;;;3.40;1.32;;;;;;;14.30;74.15;101550.59;1704483;81;20990;-84
2022/11/10 11:28:17;;;;;;;5.65;1.70;;;;;;;14.41;74.16;101556.09;1705218;82;21739;-86
2022/11/10 11:30:55;;;;;;;7.22;2.30;;;;;;;14.45;74.09;101555.34;1714780;82;21798;-86
2022/11/10 11:33:51;;;;;;;5.22;1.42;;;;;;;14.46;73.78;101554.45;1704342;81;21019;-86
2022/11/10 11:36:35;;;;;;;2.58;1.45;;;;;;;14.39;73.67;101554.73;1694217;83;21402;-87
2022/11/10 11:39:26;;;;;;;;;;;;;;;14.31;73.70;101552.36;1701036;83;20986;-86